Time;durP1;ratioP1;P1;durP2;ratioP2;P2;SDS_P1;SDS_P2;PMS_P1;PMS_P2;Temp;Humidity;BMP_temperature;BMP_pressure;BME280_temperature;BME280_humidity;BME280_pressure;Samples;Min_cycle;Max_cycle;Signal;HPM_P1;HPM_P2
2024/03/16 09:22:15;;;;;;;0.45;0.30;;;13.50;99.90;;;;;;8417461;27;20422;-88
2024/03/16 09:26:16;;;;;;;2.90;0.63;;;13.30;99.90;;;;;;8391240;28;20036;-83
2024/03/16 09:30:22;;;;;;;4.60;1.20;;;12.90;99.90;;;;;;8392039;28;20070;-84
2024/03/16 09:34:23;;;;;;;2.80;0.57;;;12.90;99.90;;;;;;8393972;28;20028;-84
2024/03/16 09:38:24;;;;;;;4.10;0.90;;;12.70;99.90;;;;;;8387288;28;20515;-83
2024/03/16 09:42:24;;;;;;;1.73;0.45;;;12.80;99.90;;;;;;8384575;28;20463;-84
2024/03/16 09:46:31;;;;;;;0.32;0.32;;;13.20;99.90;;;;;;8386143;28;20072;-84
2024/03/16 09:50:32;;;;;;;0.40;0.38;;;13.00;99.90;;;;;;8385838;28;20140;-83
2024/03/16 09:54:32;;;;;;;0.38;0.38;;;12.60;99.90;;;;;;8385983;28;20151;-84
2024/03/16 09:58:37;;;;;;;0.45;0.32;;;12.40;99.90;;;;;;8389969;28;20037;-83
2024/03/16 10:02:40;;;;;;;0.60;0.47;;;12.30;99.90;;;;;;8384600;28;20028;-84
2024/03/16 10:06:58;;;;;;;2.25;0.60;;;12.20;99.90;;;;;;8386072;28;20535;-84
2024/03/16 10:11:14;;;;;;;0.77;0.50;;;12.70;99.90;;;;;;8383312;28;20580;-83
2024/03/16 10:15:15;;;;;;;0.40;0.40;;;13.40;99.90;;;;;;8376506;28;20040;-84
2024/03/16 10:19:17;;;;;;;0.80;0.38;;;14.00;99.90;;;;;;8375942;28;20524;-84
2024/03/16 10:23:20;;;;;;;0.73;0.60;;;14.40;99.90;;;;;;8377281;28;20016;-83
2024/03/16 10:27:21;;;;;;;1.00;0.60;;;14.90;99.90;;;;;;8386830;28;20025;-85
2024/03/16 10:31:22;;;;;;;1.00;0.40;;;16.00;99.90;;;;;;8385808;28;20021;-83
2024/03/16 10:35:26;;;;;;;0.90;0.40;;;16.70;99.90;;;;;;8367238;28;20029;-83
2024/03/16 10:39:28;;;;;;;0.25;0.25;;;16.40;99.90;;;;;;8357450;28;20063;-84
2024/03/16 10:43:30;;;;;;;0.82;0.50;;;15.40;99.90;;;;;;8353943;28;20455;-84
2024/03/16 10:47:31;;;;;;;7.07;1.10;;;15.10;99.90;;;;;;8359528;28;20404;-85
2024/03/16 10:51:31;;;;;;;0.50;0.40;;;14.70;99.90;;;;;;8363833;28;20045;-84
2024/03/16 10:55:33;;;;;;;0.25;0.25;;;14.70;99.90;;;;;;8374293;28;20017;-84
2024/03/16 10:59:34;;;;;;;0.28;0.28;;;14.80;99.90;;;;;;8364271;28;20024;-84
2024/03/16 11:03:39;;;;;;;0.82;0.30;;;15.60;99.90;;;;;;8373821;28;20032;-85
2024/03/16 11:07:40;;;;;;;1.50;0.60;;;15.50;99.90;;;;;;8367823;28;20047;-85
2024/03/16 11:11:41;;;;;;;2.60;0.82;;;15.50;99.90;;;;;;8365148;28;20032;-84
2024/03/16 11:15:42;;;;;;;0.88;0.40;;;15.10;99.90;;;;;;8370959;28;20029;-84
2024/03/16 11:19:42;;;;;;;0.38;0.30;;;14.60;99.90;;;;;;8368860;28;20056;-84
2024/03/16 11:23:43;;;;;;;0.45;0.40;;;13.30;99.90;;;;;;8379316;28;20064;-83
2024/03/16 11:27:50;;;;;;;1.05;0.50;;;12.20;99.90;;;;;;8375415;28;20405;-83
2024/03/16 11:31:53;;;;;;;0.60;0.30;;;11.80;99.90;;;;;;8363371;28;20140;-83
2024/03/16 11:35:59;;;;;;;2.28;0.50;;;12.40;99.90;;;;;;8360601;28;20083;-83
2024/03/16 11:40:00;;;;;;;2.67;0.55;;;13.80;99.90;;;;;;8364204;28;20734;-83
2024/03/16 11:44:00;;;;;;;3.20;0.70;;;14.40;99.90;;;;;;8364242;28;20026;-84
2024/03/16 11:48:05;;;;;;;0.30;0.30;;;14.00;99.90;;;;;;8351619;28;20425;-84
2024/03/16 11:52:06;;;;;;;2.38;0.50;;;13.20;99.90;;;;;;8361936;28;20025;-82
2024/03/16 11:56:11;;;;;;;1.13;0.40;;;13.10;99.90;;;;;;8362883;28;20112;-82
2024/03/16 12:00:13;;;;;;;1.80;0.50;;;13.30;99.90;;;;;;8362399;28;20048;-82
2024/03/16 12:04:17;;;;;;;1.95;0.70;;;13.00;99.90;;;;;;8367516;28;20036;-83
2024/03/16 12:08:18;;;;;;;0.95;0.30;;;12.50;99.90;;;;;;8363984;28;20026;-83
2024/03/16 12:12:21;;;;;;;2.08;0.60;;;12.00;99.90;;;;;;8374646;28;20091;-85
2024/03/16 12:16:22;;;;;;;4.55;0.88;;;11.50;99.90;;;;;;8363272;28;20025;-84
2024/03/16 12:20:22;;;;;;;2.83;0.93;;;11.70;99.90;;;;;;8363217;28;20042;-83
2024/03/16 12:24:23;;;;;;;3.70;0.68;;;12.40;99.90;;;;;;8356993;28;20041;-82
2024/03/16 12:28:23;;;;;;;0.65;0.50;;;13.10;99.90;;;;;;8368065;28;20455;-82
2024/03/16 12:32:24;;;;;;;0.50;0.50;;;13.40;99.90;;;;;;8362407;28;20031;-82
2024/03/16 12:36:25;;;;;;;2.63;0.68;;;14.30;99.90;;;;;;8357169;28;20040;-81
2024/03/16 12:40:25;;;;;;;0.30;0.30;;;14.20;99.90;;;;;;8366826;28;20033;-81
2024/03/16 12:44:26;;;;;;;1.60;0.63;;;13.90;99.90;;;;;;8359055;28;20042;-81
2024/03/16 12:48:26;;;;;;;1.75;0.52;;;13.80;99.90;;;;;;8351441;28;20434;-84
2024/03/16 12:52:29;;;;;;;1.13;0.30;;;12.80;99.90;;;;;;8360621;28;20499;-84
2024/03/16 12:56:30;;;;;;;0.20;0.20;;;11.90;99.90;;;;;;8365118;28;20021;-88
2024/03/16 13:00:30;;;;;;;0.20;0.20;;;11.00;99.90;;;;;;8369839;28;20025;-87
2024/03/16 13:04:31;;;;;;;0.30;0.30;;;10.40;99.90;;;;;;8363811;28;20507;-86
2024/03/16 13:08:32;;;;;;;0.20;0.20;;;10.30;99.90;;;;;;8363680;28;20037;-86
2024/03/16 13:12:33;;;;;;;0.08;0.08;;;10.20;99.90;;;;;;8359357;28;20025;-85
2024/03/16 13:16:33;;;;;;;0.50;0.30;;;10.20;99.90;;;;;;8367091;28;20390;-84
2024/03/16 13:20:34;;;;;;;0.30;0.20;;;10.10;99.90;;;;;;8363693;28;20033;-85
2024/03/16 13:24:34;;;;;;;0.10;0.10;;;10.30;99.90;;;;;;8369582;28;20529;-85
2024/03/16 13:28:35;;;;;;;0.75;0.22;;;10.40;99.90;;;;;;8363105;28;20032;-86
2024/03/16 13:32:37;;;;;;;0.20;0.20;;;10.80;99.90;;;;;;8367362;28;20128;-85
2024/03/16 13:36:38;;;;;;;0.20;0.20;;;11.30;99.90;;;;;;8364394;28;20032;-84
2024/03/16 13:41:26;;;;;;;0.20;0.20;;;11.60;99.90;;;;;;8391558;28;20048;-85
2024/03/16 13:47:09;;;;;;;0.30;0.30;;;12.00;99.90;;;;;;8356462;28;20033;-86
2024/03/16 13:56:23;;;;;;;0.40;0.40;;;16.30;99.90;;;;;;8179195;28;20043;-85
2024/03/16 14:01:29;;;;;;;0.70;0.20;;;16.60;99.90;;;;;;8170542;29;20120;-84
2024/03/16 14:06:25;;;;;;;0.20;0.20;;;14.80;99.90;;;;;;8136791;28;20039;-84
2024/03/16 14:11:21;;;;;;;0.75;0.40;;;14.00;99.90;;;;;;8325388;28;20051;-83
2024/03/16 14:20:30;;;;;;;0.20;0.20;;;15.10;99.90;;;;;;8342952;28;20046;-82
2024/03/16 14:24:33;;;;;;;0.90;0.30;;;15.10;99.90;;;;;;8367902;28;20029;-81
2024/03/16 14:29:02;;;;;;;0.20;0.20;;;14.50;99.90;;;;;;8359455;28;20037;-81
2024/03/16 14:33:08;;;;;;;0.20;0.20;;;14.20;99.90;;;;;;8367789;28;20076;-81
2024/03/16 14:37:12;;;;;;;0.35;0.30;;;14.10;99.90;;;;;;8369345;28;20025;-81
2024/03/16 14:41:18;;;;;;;0.40;0.30;;;14.30;99.90;;;;;;8364693;28;20028;-81
2024/03/16 14:45:21;;;;;;;0.57;0.40;;;15.10;99.90;;;;;;8365832;28;20035;-81
2024/03/16 14:49:24;;;;;;;0.65;0.63;;;14.60;99.90;;;;;;8360410;28;20028;-81
2024/03/16 14:53:24;;;;;;;0.93;0.52;;;16.40;99.90;;;;;;8364750;28;20627;-82
2024/03/16 14:57:25;;;;;;;1.17;0.80;;;16.50;99.90;;;;;;8370387;28;20117;-82
2024/03/16 15:01:26;;;;;;;0.80;0.60;;;15.10;99.90;;;;;;8367436;28;20032;-81
2024/03/16 15:05:27;;;;;;;0.90;0.65;;;15.70;99.90;;;;;;8357985;28;20026;-82
2024/03/16 15:09:27;;;;;;;0.47;0.25;;;15.50;99.90;;;;;;8358711;28;20071;-81
2024/03/16 15:13:28;;;;;;;0.30;0.30;;;14.60;99.90;;;;;;8376618;28;20032;-82
2024/03/16 15:17:28;;;;;;;0.68;0.57;;;13.70;99.90;;;;;;8363483;28;20041;-82
2024/03/16 15:21:29;;;;;;;0.77;0.60;;;13.00;99.90;;;;;;8356088;28;20041;-81
2024/03/16 15:25:39;;;;;;;0.30;0.30;;;13.00;99.90;;;;;;8358301;28;20086;-81
2024/03/16 15:29:40;;;;;;;0.13;0.13;;;12.90;99.90;;;;;;8351231;28;20093;-81
2024/03/16 15:33:41;;;;;;;0.35;0.30;;;12.40;99.90;;;;;;8366284;28;20029;-81
2024/03/16 15:37:41;;;;;;;0.20;0.20;;;12.20;99.90;;;;;;8354415;28;20367;-81
2024/03/16 15:41:44;;;;;;;0.32;0.20;;;12.20;99.90;;;;;;8363877;28;20048;-81
2024/03/16 15:45:45;;;;;;;0.20;0.20;;;12.00;99.90;;;;;;8359809;28;20024;-82
2024/03/16 15:49:46;;;;;;;0.32;0.25;;;11.90;99.90;;;;;;8358220;28;20112;-81
2024/03/16 15:53:46;;;;;;;0.60;0.38;;;11.90;99.90;;;;;;8352964;28;20025;-82
2024/03/16 15:57:47;;;;;;;0.47;0.30;;;11.90;99.90;;;;;;8343829;28;20497;-82
2024/03/16 16:01:47;;;;;;;0.88;0.60;;;11.90;99.90;;;;;;8357412;28;20033;-82
2024/03/16 16:05:49;;;;;;;0.32;0.30;;;12.00;99.90;;;;;;8355250;28;20021;-84
2024/03/16 16:09:50;;;;;;;1.35;0.30;;;12.00;99.90;;;;;;8359902;28;20497;-84
2024/03/16 16:13:50;;;;;;;0.90;0.32;;;12.00;99.90;;;;;;8357804;28;20032;-84
2024/03/16 16:17:51;;;;;;;0.43;0.30;;;11.90;99.90;;;;;;8371100;28;20058;-84
2024/03/16 16:21:52;;;;;;;0.50;0.30;;;12.10;99.90;;;;;;8358218;28;20051;-84
2024/03/16 16:25:52;;;;;;;0.43;0.35;;;12.10;99.90;;;;;;8360852;28;20058;-83
2024/03/16 16:29:53;;;;;;;0.32;0.30;;;12.20;99.90;;;;;;8356626;28;20060;-83
2024/03/16 16:33:54;;;;;;;1.00;0.30;;;12.10;99.90;;;;;;8360370;28;20049;-84
2024/03/16 16:37:54;;;;;;;0.65;0.50;;;11.80;99.90;;;;;;8364652;28;20021;-84
2024/03/16 16:41:55;;;;;;;0.55;0.40;;;11.30;99.90;;;;;;8371443;28;20036;-83
2024/03/16 16:45:57;;;;;;;0.68;0.32;;;11.10;99.90;;;;;;8351160;28;20124;-83
2024/03/16 16:50:00;;;;;;;0.40;0.40;;;10.90;99.90;;;;;;8355170;28;20116;-83
2024/03/16 16:54:05;;;;;;;2.47;0.85;;;10.60;99.90;;;;;;8362206;28;20486;-84
2024/03/16 16:58:05;;;;;;;0.75;0.50;;;10.60;99.90;;;;;;8361647;28;20077;-85
2024/03/16 17:02:08;;;;;;;1.08;0.50;;;10.50;99.90;;;;;;8361680;28;20623;-85
2024/03/16 17:06:08;;;;;;;0.30;0.30;;;10.50;99.90;;;;;;8366893;28;20405;-85
2024/03/16 17:10:12;;;;;;;0.73;0.45;;;10.40;99.90;;;;;;8354910;28;20029;-86
2024/03/16 17:14:12;;;;;;;0.77;0.40;;;10.40;99.90;;;;;;8363051;28;20078;-86
2024/03/16 17:18:13;;;;;;;0.35;0.32;;;10.40;99.90;;;;;;8365679;28;20029;-85
2024/03/16 17:22:13;;;;;;;1.05;0.40;;;10.30;99.90;;;;;;8359616;28;20435;-85
2024/03/16 17:26:16;;;;;;;1.50;0.85;;;10.30;99.90;;;;;;8364962;28;20092;-85
2024/03/16 17:30:16;;;;;;;0.70;0.40;;;10.20;99.90;;;;;;8371259;28;20115;-85
2024/03/16 17:34:17;;;;;;;1.05;0.43;;;10.20;99.90;;;;;;8359760;28;20040;-84
2024/03/16 17:38:17;;;;;;;0.40;0.40;;;10.10;99.90;;;;;;8356634;28;20029;-83
2024/03/16 17:42:18;;;;;;;0.73;0.50;;;10.00;99.90;;;;;;8361593;28;20040;-83
2024/03/16 17:46:18;;;;;;;0.98;0.43;;;10.30;99.90;;;;;;8377562;28;20028;-83
2024/03/16 17:50:19;;;;;;;0.52;0.32;;;10.10;99.90;;;;;;8376999;28;20032;-83
2024/03/16 17:54:19;;;;;;;1.30;0.30;;;10.10;99.90;;;;;;8367159;28;20021;-83
2024/03/16 17:58:20;;;;;;;0.88;0.45;;;10.20;99.90;;;;;;8367462;28;20020;-83
2024/03/16 18:02:20;;;;;;;0.60;0.40;;;10.10;99.90;;;;;;8375803;28;20481;-83
2024/03/16 18:06:21;;;;;;;0.30;0.30;;;10.00;99.90;;;;;;8373420;28;20032;-83
2024/03/16 18:10:21;;;;;;;0.52;0.52;;;9.90;99.90;;;;;;8371509;28;20090;-83
2024/03/16 18:14:22;;;;;;;0.55;0.43;;;10.00;99.90;;;;;;8360902;28;20036;-83
2024/03/16 18:18:23;;;;;;;1.33;0.60;;;9.90;99.90;;;;;;8364152;28;20040;-82
2024/03/16 18:22:23;;;;;;;0.47;0.40;;;10.00;99.90;;;;;;8371110;28;20033;-83
2024/03/16 18:26:24;;;;;;;0.30;0.30;;;9.80;99.90;;;;;;8375333;28;20182;-83
2024/03/16 18:30:25;;;;;;;0.85;0.50;;;9.80;99.90;;;;;;8362088;28;20056;-83
2024/03/16 18:34:25;;;;;;;1.80;0.52;;;9.70;99.90;;;;;;8362667;28;20079;-83
2024/03/16 18:38:26;;;;;;;1.75;0.50;;;9.70;99.90;;;;;;8361305;28;20481;-83
2024/03/16 18:42:29;;;;;;;1.08;0.57;;;9.50;99.90;;;;;;8360393;28;20029;-83
2024/03/16 18:46:31;;;;;;;1.02;0.50;;;9.40;99.90;;;;;;8364050;28;20031;-82
2024/03/16 18:50:32;;;;;;;0.73;0.38;;;9.60;99.90;;;;;;8361697;28;20025;-83
2024/03/16 18:54:32;;;;;;;1.00;0.60;;;9.60;99.90;;;;;;8357379;28;20022;-83
2024/03/16 18:58:33;;;;;;;1.65;0.80;;;9.50;99.90;;;;;;8375239;28;20440;-83
2024/03/16 19:02:34;;;;;;;1.10;0.90;;;9.50;99.90;;;;;;8376132;28;20055;-82
2024/03/16 19:06:35;;;;;;;2.83;0.60;;;9.30;99.90;;;;;;8371213;28;20025;-83
2024/03/16 19:10:35;;;;;;;1.23;0.60;;;9.20;99.90;;;;;;8371161;28;20059;-83
2024/03/16 19:14:36;;;;;;;0.73;0.50;;;9.40;99.90;;;;;;8370248;28;20032;-83
2024/03/16 19:18:36;;;;;;;0.70;0.40;;;9.30;99.90;;;;;;8371618;28;20029;-82
2024/03/16 19:22:38;;;;;;;16.83;8.75;;;9.20;99.90;;;;;;8379374;28;20018;-82
2024/03/16 19:26:38;;;;;;;2.88;1.65;;;9.40;99.90;;;;;;8368713;28;20044;-82
2024/03/16 19:30:39;;;;;;;0.70;0.55;;;9.30;99.90;;;;;;8369433;28;20017;-83
2024/03/16 19:34:47;;;;;;;1.08;0.40;;;9.30;99.90;;;;;;8378951;28;20052;-83
2024/03/16 19:38:49;;;;;;;0.75;0.50;;;9.50;99.90;;;;;;8379646;28;20032;-83
2024/03/16 19:42:54;;;;;;;0.70;0.35;;;9.50;99.90;;;;;;8368787;28;20033;-83
2024/03/16 19:46:55;;;;;;;0.65;0.30;;;9.50;99.90;;;;;;8367496;28;20047;-83
2024/03/16 19:50:55;;;;;;;0.55;0.22;;;9.80;99.90;;;;;;8369151;28;20037;-82
2024/03/16 19:54:56;;;;;;;0.45;0.30;;;9.70;99.90;;;;;;8366289;28;20122;-83
2024/03/16 19:58:56;;;;;;;0.40;0.32;;;9.50;99.90;;;;;;8374008;28;20092;-83
2024/03/16 20:02:58;;;;;;;0.75;0.40;;;9.70;99.90;;;;;;8378973;28;20025;-82
2024/03/16 20:06:58;;;;;;;1.95;0.57;;;9.60;99.90;;;;;;8375067;28;20028;-83
2024/03/16 20:11:00;;;;;;;0.73;0.50;;;9.20;99.90;;;;;;8390247;28;20055;-83
2024/03/16 20:15:01;;;;;;;0.93;0.47;;;8.70;99.90;;;;;;8391593;28;20021;-83
2024/03/16 20:19:01;;;;;;;1.08;0.55;;;8.30;99.90;;;;;;8372630;28;20029;-83
2024/03/16 20:23:03;;;;;;;0.40;0.40;;;7.80;99.90;;;;;;8367573;28;20025;-82
2024/03/16 20:27:04;;;;;;;0.52;0.45;;;7.50;99.90;;;;;;8376944;28;20039;-82
2024/03/16 20:31:04;;;;;;;2.55;0.55;;;7.20;99.90;;;;;;8368543;28;20029;-83
2024/03/16 20:35:05;;;;;;;0.60;0.50;;;6.90;99.90;;;;;;8380953;28;20083;-83
2024/03/16 20:39:09;;;;;;;0.73;0.40;;;6.70;99.90;;;;;;8380263;28;20040;-83
2024/03/16 20:43:10;;;;;;;0.50;0.50;;;6.60;99.90;;;;;;8367182;28;20163;-82
2024/03/16 20:47:11;;;;;;;1.17;0.70;;;6.40;99.90;;;;;;8383625;28;20032;-82
2024/03/16 20:51:11;;;;;;;1.02;0.50;;;6.20;99.90;;;;;;8375070;28;20508;-83
2024/03/16 20:55:16;;;;;;;1.15;0.50;;;6.30;99.90;;;;;;8381993;28;20031;-83
2024/03/16 20:59:17;;;;;;;1.00;0.60;;;6.30;99.90;;;;;;8364919;28;20493;-83
2024/03/16 21:03:17;;;;;;;0.45;0.40;;;6.10;99.90;;;;;;8364287;28;20025;-83
2024/03/16 21:07:18;;;;;;;0.73;0.70;;;6.10;99.90;;;;;;8375203;28;20043;-82
2024/03/16 21:11:24;;;;;;;1.27;0.70;;;5.90;99.90;;;;;;8371306;28;20040;-83
2024/03/16 21:15:24;;;;;;;1.35;0.50;;;5.60;99.90;;;;;;8381430;28;20028;-83
2024/03/16 21:19:25;;;;;;;0.98;0.60;;;5.50;99.90;;;;;;8375293;28;20032;-83
2024/03/16 21:23:31;;;;;;;9.75;3.05;;;5.30;99.90;;;;;;8364980;28;20040;-83
2024/03/16 21:27:31;;;;;;;3.42;1.60;;;5.40;99.90;;;;;;8368680;28;20055;-82
2024/03/16 21:31:32;;;;;;;2.13;1.17;;;5.60;99.90;;;;;;8384138;28;20027;-83
2024/03/16 21:35:32;;;;;;;0.40;0.40;;;5.40;99.90;;;;;;8394026;28;20038;-83
2024/03/16 21:39:34;;;;;;;0.60;0.57;;;5.40;99.90;;;;;;8376477;28;20124;-83
2024/03/16 21:43:36;;;;;;;1.60;0.70;;;5.30;99.90;;;;;;8381406;28;20029;-83
2024/03/16 21:47:41;;;;;;;1.65;0.73;;;5.10;99.90;;;;;;8371377;28;20029;-84
2024/03/16 21:51:44;;;;;;;1.65;0.70;;;5.10;99.90;;;;;;8371161;28;20068;-83
2024/03/16 21:55:44;;;;;;;1.83;0.60;;;5.00;99.90;;;;;;8379993;28;20485;-83
2024/03/16 21:59:45;;;;;;;1.20;0.80;;;4.90;99.90;;;;;;8368337;28;20040;-83
2024/03/16 22:03:45;;;;;;;2.08;1.20;;;5.00;99.90;;;;;;8373430;28;20033;-83
2024/03/16 22:07:46;;;;;;;1.58;0.88;;;5.10;99.90;;;;;;8369618;28;20040;-83
2024/03/16 22:11:47;;;;;;;1.67;1.17;;;5.20;99.90;;;;;;8367982;28;20021;-83
2024/03/16 22:15:49;;;;;;;1.85;1.20;;;5.20;99.90;;;;;;8375375;28;20032;-83
2024/03/16 22:19:50;;;;;;;4.10;1.63;;;5.40;99.90;;;;;;8363296;28;20030;-83
2024/03/16 22:23:51;;;;;;;3.50;2.25;;;5.50;99.90;;;;;;8357215;28;20091;-82
2024/03/16 22:27:52;;;;;;;5.30;2.20;;;5.50;99.90;;;;;;8366924;28;20033;-83
2024/03/16 22:31:56;;;;;;;3.03;1.48;;;5.50;99.90;;;;;;8377296;28;20033;-83
2024/03/16 22:35:56;;;;;;;2.67;1.73;;;5.50;99.90;;;;;;8379292;28;20068;-83
2024/03/16 22:39:58;;;;;;;4.60;1.70;;;5.50;99.90;;;;;;8374078;28;20029;-82
2024/03/16 22:43:59;;;;;;;5.85;2.67;;;5.50;99.90;;;;;;8371009;28;20163;-83
2024/03/16 22:47:59;;;;;;;8.50;2.40;;;5.60;99.90;;;;;;8372959;28;20047;-83
2024/03/16 22:52:00;;;;;;;5.13;2.78;;;5.60;99.90;;;;;;8378602;28;20036;-83
2024/03/16 22:56:01;;;;;;;4.18;2.50;;;5.70;99.90;;;;;;8367749;28;20037;-83
2024/03/16 23:00:02;;;;;;;3.65;2.55;;;5.70;99.90;;;;;;8382584;28;20400;-83
2024/03/16 23:04:03;;;;;;;3.15;2.05;;;5.70;99.90;;;;;;8393457;28;20021;-83
2024/03/16 23:08:04;;;;;;;5.50;1.95;;;5.80;99.90;;;;;;8377289;28;20102;-83
2024/03/16 23:12:05;;;;;;;5.00;2.60;;;5.80;99.90;;;;;;8387771;28;20033;-83
2024/03/16 23:16:07;;;;;;;4.63;2.15;;;5.80;99.90;;;;;;8373658;28;20025;-83
2024/03/16 23:20:08;;;;;;;6.72;2.13;;;5.90;99.90;;;;;;8376379;28;20036;-83
2024/03/16 23:24:08;;;;;;;3.08;1.58;;;5.90;99.90;;;;;;8376590;28;20021;-83
2024/03/16 23:28:09;;;;;;;2.53;0.90;;;5.80;99.90;;;;;;8376551;28;20036;-83
2024/03/16 23:32:10;;;;;;;3.63;1.90;;;5.70;99.90;;;;;;8371320;28;20041;-83
2024/03/16 23:36:12;;;;;;;3.10;1.90;;;5.60;99.90;;;;;;8372087;28;20036;-84
2024/03/16 23:40:13;;;;;;;2.55;1.85;;;5.60;99.90;;;;;;8365297;28;20024;-83
2024/03/16 23:44:13;;;;;;;3.20;1.75;;;5.60;99.90;;;;;;8379814;28;20024;-83
2024/03/16 23:48:14;;;;;;;2.63;1.50;;;5.60;99.90;;;;;;8376176;28;20032;-83
2024/03/16 23:52:14;;;;;;;2.72;1.50;;;5.60;99.90;;;;;;8370252;28;20029;-84
2024/03/16 23:56:15;;;;;;;3.40;1.40;;;5.70;99.90;;;;;;8386980;28;20012;-83
